메인 페이지
METAR-TAF:

METAR-TAF

공항 :

페샤와르, 파키스탄

위도: 34-01N, 경도: 071-35E, 고도: 359m

현재 날씨관측

예보는 15분 전, 12:00시(UTC)에 발표되었습니다.
남동4kt
온도 19°C
습도 68%
기압 1014 hPa
시정: 7000m
고도 10000ft 상공 구름 조금
고도 20000ft 상공 구름 조금
연무

METAR: OPPS 141200Z 13004KT 7000 HZ FEW100 FEW200 19/13 Q1014

시각: 17:15 (12:15 UTC)

예보

예보는 2 시간 0분 전, 10:15시(UTC)에 발표되었습니다.
예보 대상 시간: 14일 12시부터 15일 18시까지 (UTC)
북서15kt
시정: 4000m
고도 4000ft 상공 구름 조금
고도 10000ft 상공 구름 보통
연무
일시적
14일 12시부터 14일 15시까지 (UTC)
고도 4000ft 상공 구름 보통
고도 10000ft 상공 구름 많음
일시적
15일 02시부터 15일 06시까지 (UTC)
시정: 3000m
박무

TAF: OPPS 141015Z 1412/1518 31015KT 4000 HZ FEW040 SCT100 TEMPO 1412/1415 SCT040 BKN100 TEMPO 1502/1506 21010 3000 BR

4,000개 이상의 공항 관측 자료 및 예보 (METAR 및 TAF 보고).

지도상에서 검색 가능한 기상관측소가 노란 점과 빨간 점으로 표시되어 있습니다.

기상관측소 명을 보려면 표시 위로 마우스를 이동하세요.

날씨 관측과 예보를 보려면 클릭하세요.

지도 변경 : 확대하려면 엑스 표시가 있는 녹색 버튼, 축소하려면 빼기 표시가 있는 녹색 버튼, 다음 페이지의 지도를 보려면 녹색 화살표를 클릭하세요.


METAR-TAF: